sensor_id;sensor_type;location;lat;lon;timestamp;temperature;humidity
24097;DHT22;12275;48.550;12.132;2023-09-19T10:30:45;19.80;99.90
24097;DHT22;12275;48.550;12.132;2023-09-19T10:33:13;19.90;99.90
24097;DHT22;12275;48.550;12.132;2023-09-19T10:35:39;19.80;99.90
24097;DHT22;12275;48.550;12.132;2023-09-19T10:38:18;19.80;99.90
24097;DHT22;12275;48.550;12.132;2023-09-19T10:40:50;19.70;99.90
24097;DHT22;12275;48.550;12.132;2023-09-19T10:43:17;19.90;99.90
24097;DHT22;12275;48.550;12.132;2023-09-19T10:45:43;19.90;99.90
24097;DHT22;12275;48.550;12.132;2023-09-19T10:48:09;19.90;99.90
24097;DHT22;12275;48.550;12.132;2023-09-19T10:50:41;19.90;99.90
24097;DHT22;12275;48.550;12.132;2023-09-19T10:53:10;19.90;99.90
24097;DHT22;12275;48.550;12.132;2023-09-19T10:55:37;19.90;99.90
24097;DHT22;12275;48.550;12.132;2023-09-19T10:58:03;19.80;99.90
24097;DHT22;12275;48.550;12.132;2023-09-19T11:00:52;19.60;99.90
24097;DHT22;12275;48.550;12.132;2023-09-19T11:03:19;19.50;99.90
24097;DHT22;12275;48.550;12.132;2023-09-19T11:06:01;19.50;99.90
24097;DHT22;12275;48.550;12.132;2023-09-19T11:08:30;19.40;99.90
24097;DHT22;12275;48.550;12.132;2023-09-19T11:10:57;19.30;99.90
24097;DHT22;12275;48.550;12.132;2023-09-19T11:26:43;18.90;99.90
24097;DHT22;12275;48.550;12.132;2023-09-19T11:29:28;19.00;99.90
24097;DHT22;12275;48.550;12.132;2023-09-19T11:31:54;18.90;99.90
24097;DHT22;12275;48.550;12.132;2023-09-19T11:39:37;18.90;99.90
24097;DHT22;12275;48.550;12.132;2023-09-19T11:42:49;18.90;99.90
24097;DHT22;12275;48.550;12.132;2023-09-19T11:44:49;18.90;99.90
24097;DHT22;12275;48.550;12.132;2023-09-19T11:47:17;18.90;99.90
24097;DHT22;12275;48.550;12.132;2023-09-19T11:49:44;18.90;99.90
24097;DHT22;12275;48.550;12.132;2023-09-19T11:52:09;19.00;99.90
24097;DHT22;12275;48.550;12.132;2023-09-19T11:54:35;19.10;99.90
24097;DHT22;12275;48.550;12.132;2023-09-19T11:57:05;19.20;99.90
24097;DHT22;12275;48.550;12.132;2023-09-19T11:59:31;19.30;99.90
24097;DHT22;12275;48.550;12.132;2023-09-19T12:01:57;19.50;99.90
24097;DHT22;12275;48.550;12.132;2023-09-19T12:04:35;19.80;99.90
24097;DHT22;12275;48.550;12.132;2023-09-19T12:07:06;20.00;99.90
24097;DHT22;12275;48.550;12.132;2023-09-19T12:09:39;20.30;99.90
24097;DHT22;12275;48.550;12.132;2023-09-19T12:12:06;20.30;99.90
24097;DHT22;12275;48.550;12.132;2023-09-19T12:14:31;20.30;99.90
24097;DHT22;12275;48.550;12.132;2023-09-19T12:16:57;20.30;99.90
24097;DHT22;12275;48.550;12.132;2023-09-19T12:19:24;20.40;99.90
24097;DHT22;12275;48.550;12.132;2023-09-19T12:22:00;20.50;99.90
24097;DHT22;12275;48.550;12.132;2023-09-19T12:24:34;20.60;99.90
24097;DHT22;12275;48.550;12.132;2023-09-19T12:27:04;20.70;99.90
24097;DHT22;12275;48.550;12.132;2023-09-19T12:29:31;20.80;99.90
24097;DHT22;12275;48.550;12.132;2023-09-19T12:31:57;20.90;99.90
24097;DHT22;12275;48.550;12.132;2023-09-19T12:34:27;21.00;99.90
24097;DHT22;12275;48.550;12.132;2023-09-19T12:39:40;21.20;99.90
24097;DHT22;12275;48.550;12.132;2023-09-19T12:42:09;21.30;99.90
24097;DHT22;12275;48.550;12.132;2023-09-19T12:44:36;21.20;99.90
24097;DHT22;12275;48.550;12.132;2023-09-19T12:47:08;21.10;99.90
24097;DHT22;12275;48.550;12.132;2023-09-19T12:49:34;20.90;99.90
24097;DHT22;12275;48.550;12.132;2023-09-19T12:52:00;20.90;99.90
24097;DHT22;12275;48.550;12.132;2023-09-19T12:54:36;20.80;99.90
24097;DHT22;12275;48.550;12.132;2023-09-19T12:57:03;20.80;99.90
24097;DHT22;12275;48.550;12.132;2023-09-19T12:59:30;20.80;99.90
24097;DHT22;12275;48.550;12.132;2023-09-19T13:02:04;20.80;99.90
24097;DHT22;12275;48.550;12.132;2023-09-19T13:04:38;20.90;99.90
24097;DHT22;12275;48.550;12.132;2023-09-19T13:07:07;20.90;99.90
24097;DHT22;12275;48.550;12.132;2023-09-19T13:09:34;20.90;99.90
24097;DHT22;12275;48.550;12.132;2023-09-19T13:12:00;20.90;99.90
24097;DHT22;12275;48.550;12.132;2023-09-19T13:14:28;20.80;99.90
24097;DHT22;12275;48.550;12.132;2023-09-19T13:19:48;20.80;99.90
24097;DHT22;12275;48.550;12.132;2023-09-19T13:22:42;20.70;99.90
24097;DHT22;12275;48.550;12.132;2023-09-19T13:25:11;20.70;99.90
24097;DHT22;12275;48.550;12.132;2023-09-19T13:27:41;20.60;99.90
24097;DHT22;12275;48.550;12.132;2023-09-19T13:30:07;20.60;99.90
24097;DHT22;12275;48.550;12.132;2023-09-19T13:32:32;20.50;99.90
24097;DHT22;12275;48.550;12.132;2023-09-19T13:34:59;20.60;99.90
24097;DHT22;12275;48.550;12.132;2023-09-19T13:37:24;20.60;99.90
24097;DHT22;12275;48.550;12.132;2023-09-19T13:39:51;20.70;99.90
24097;DHT22;12275;48.550;12.132;2023-09-19T13:42:17;20.70;99.90
24097;DHT22;12275;48.550;12.132;2023-09-19T13:44:43;20.70;99.90
24097;DHT22;12275;48.550;12.132;2023-09-19T13:47:09;20.70;99.90
24097;DHT22;12275;48.550;12.132;2023-09-19T13:49:35;20.80;99.90
24097;DHT22;12275;48.550;12.132;2023-09-19T13:52:01;20.80;99.90
24097;DHT22;12275;48.550;12.132;2023-09-19T13:54:30;20.80;99.90
24097;DHT22;12275;48.550;12.132;2023-09-19T13:56:55;20.80;99.90
24097;DHT22;12275;48.550;12.132;2023-09-19T13:59:21;20.90;99.90
24097;DHT22;12275;48.550;12.132;2023-09-19T14:01:51;21.00;99.90
24097;DHT22;12275;48.550;12.132;2023-09-19T14:04:19;21.00;99.90
24097;DHT22;12275;48.550;12.132;2023-09-19T14:06:44;21.00;99.90
24097;DHT22;12275;48.550;12.132;2023-09-19T14:09:11;21.00;99.90
24097;DHT22;12275;48.550;12.132;2023-09-19T14:11:38;20.90;99.90
24097;DHT22;12275;48.550;12.132;2023-09-19T14:14:04;20.90;99.90
24097;DHT22;12275;48.550;12.132;2023-09-19T14:16:30;20.80;99.90
24097;DHT22;12275;48.550;12.132;2023-09-19T14:18:56;20.80;99.90
24097;DHT22;12275;48.550;12.132;2023-09-19T14:21:22;20.80;99.90
24097;DHT22;12275;48.550;12.132;2023-09-19T14:23:48;20.90;99.90
24097;DHT22;12275;48.550;12.132;2023-09-19T14:26:14;21.00;99.90
24097;DHT22;12275;48.550;12.132;2023-09-19T14:28:41;21.00;99.90
24097;DHT22;12275;48.550;12.132;2023-09-19T14:31:07;21.10;99.90
24097;DHT22;12275;48.550;12.132;2023-09-19T14:33:33;21.10;99.90
24097;DHT22;12275;48.550;12.132;2023-09-19T14:36:02;21.10;99.90
24097;DHT22;12275;48.550;12.132;2023-09-19T14:38:27;21.10;99.90
24097;DHT22;12275;48.550;12.132;2023-09-19T14:41:00;21.00;99.90
24097;DHT22;12275;48.550;12.132;2023-09-19T14:43:26;21.10;99.90
24097;DHT22;12275;48.550;12.132;2023-09-19T14:45:52;21.10;99.90
24097;DHT22;12275;48.550;12.132;2023-09-19T14:48:17;21.10;99.90
24097;DHT22;12275;48.550;12.132;2023-09-19T14:50:43;21.10;99.90
24097;DHT22;12275;48.550;12.132;2023-09-19T14:53:09;21.00;99.90
24097;DHT22;12275;48.550;12.132;2023-09-19T14:55:36;21.00;99.90
24097;DHT22;12275;48.550;12.132;2023-09-19T14:58:02;21.00;99.90
24097;DHT22;12275;48.550;12.132;2023-09-19T15:00:28;21.00;99.90
24097;DHT22;12275;48.550;12.132;2023-09-19T15:02:53;21.00;99.90
24097;DHT22;12275;48.550;12.132;2023-09-19T15:05:21;21.00;99.90
24097;DHT22;12275;48.550;12.132;2023-09-19T15:07:46;21.00;99.90
24097;DHT22;12275;48.550;12.132;2023-09-19T15:10:12;21.00;99.90
24097;DHT22;12275;48.550;12.132;2023-09-19T15:12:38;20.90;99.90
24097;DHT22;12275;48.550;12.132;2023-09-19T15:15:05;20.90;99.90
24097;DHT22;12275;48.550;12.132;2023-09-19T15:17:33;20.90;99.90
24097;DHT22;12275;48.550;12.132;2023-09-19T15:19:59;20.80;99.90
24097;DHT22;12275;48.550;12.132;2023-09-19T15:22:24;20.80;99.90
24097;DHT22;12275;48.550;12.132;2023-09-19T15:24:50;20.80;99.90
24097;DHT22;12275;48.550;12.132;2023-09-19T15:27:17;20.80;99.90
24097;DHT22;12275;48.550;12.132;2023-09-19T15:29:45;20.70;99.90
24097;DHT22;12275;48.550;12.132;2023-09-19T15:32:11;20.70;99.90
24097;DHT22;12275;48.550;12.132;2023-09-19T15:34:36;20.70;99.90
24097;DHT22;12275;48.550;12.132;2023-09-19T15:37:02;20.70;99.90
24097;DHT22;12275;48.550;12.132;2023-09-19T15:39:30;20.60;99.90
24097;DHT22;12275;48.550;12.132;2023-09-19T15:41:58;20.60;99.90
24097;DHT22;12275;48.550;12.132;2023-09-19T15:44:24;20.60;99.90
24097;DHT22;12275;48.550;12.132;2023-09-19T15:46:52;20.60;99.90
24097;DHT22;12275;48.550;12.132;2023-09-19T15:49:18;20.60;99.90
24097;DHT22;12275;48.550;12.132;2023-09-19T15:51:43;20.60;99.90
24097;DHT22;12275;48.550;12.132;2023-09-19T15:54:10;20.60;99.90
24097;DHT22;12275;48.550;12.132;2023-09-19T15:56:36;20.60;99.90
24097;DHT22;12275;48.550;12.132;2023-09-19T15:59:02;20.50;99.90
24097;DHT22;12275;48.550;12.132;2023-09-19T16:01:27;20.50;99.90
24097;DHT22;12275;48.550;12.132;2023-09-19T16:03:53;20.50;99.90
24097;DHT22;12275;48.550;12.132;2023-09-19T16:06:23;20.50;99.90
24097;DHT22;12275;48.550;12.132;2023-09-19T16:08:49;20.50;99.90
24097;DHT22;12275;48.550;12.132;2023-09-19T16:11:15;20.40;99.90
24097;DHT22;12275;48.550;12.132;2023-09-19T16:13:41;20.40;99.90
24097;DHT22;12275;48.550;12.132;2023-09-19T16:16:07;20.50;99.90
24097;DHT22;12275;48.550;12.132;2023-09-19T16:18:33;20.40;99.90
24097;DHT22;12275;48.550;12.132;2023-09-19T16:21:02;20.40;99.90
24097;DHT22;12275;48.550;12.132;2023-09-19T16:23:28;20.40;99.90
24097;DHT22;12275;48.550;12.132;2023-09-19T16:26:06;20.40;99.90
24097;DHT22;12275;48.550;12.132;2023-09-19T16:28:32;20.40;99.90
24097;DHT22;12275;48.550;12.132;2023-09-19T16:31:02;20.40;99.90
24097;DHT22;12275;48.550;12.132;2023-09-19T16:33:28;20.40;99.90
24097;DHT22;12275;48.550;12.132;2023-09-19T16:35:53;20.40;99.90
24097;DHT22;12275;48.550;12.132;2023-09-19T16:38:19;20.30;99.90
24097;DHT22;12275;48.550;12.132;2023-09-19T16:40:51;20.30;99.90
24097;DHT22;12275;48.550;12.132;2023-09-19T16:43:17;20.30;99.90
24097;DHT22;12275;48.550;12.132;2023-09-19T16:45:51;20.30;99.90
24097;DHT22;12275;48.550;12.132;2023-09-19T16:48:17;20.30;99.90
24097;DHT22;12275;48.550;12.132;2023-09-19T16:50:43;20.30;99.90
24097;DHT22;12275;48.550;12.132;2023-09-19T16:53:08;20.30;99.90
24097;DHT22;12275;48.550;12.132;2023-09-19T16:55:34;20.20;99.90
24097;DHT22;12275;48.550;12.132;2023-09-19T16:58:00;20.20;99.90
24097;DHT22;12275;48.550;12.132;2023-09-19T17:00:26;20.20;99.90
24097;DHT22;12275;48.550;12.132;2023-09-19T17:02:51;20.10;99.90
24097;DHT22;12275;48.550;12.132;2023-09-19T17:05:17;20.10;99.90
24097;DHT22;12275;48.550;12.132;2023-09-19T17:07:44;20.10;99.90
24097;DHT22;12275;48.550;12.132;2023-09-19T17:10:10;20.10;99.90
24097;DHT22;12275;48.550;12.132;2023-09-19T17:12:36;20.00;99.90
24097;DHT22;12275;48.550;12.132;2023-09-19T17:15:01;20.00;99.90
24097;DHT22;12275;48.550;12.132;2023-09-19T17:17:27;20.00;99.90
24097;DHT22;12275;48.550;12.132;2023-09-19T17:19:52;20.00;99.90
24097;DHT22;12275;48.550;12.132;2023-09-19T17:22:18;20.00;99.90
24097;DHT22;12275;48.550;12.132;2023-09-19T17:24:44;20.00;99.90
24097;DHT22;12275;48.550;12.132;2023-09-19T17:27:11;19.90;99.90
24097;DHT22;12275;48.550;12.132;2023-09-19T17:29:37;19.90;99.90
24097;DHT22;12275;48.550;12.132;2023-09-19T17:32:03;19.90;99.90
24097;DHT22;12275;48.550;12.132;2023-09-19T17:34:29;19.90;99.90
24097;DHT22;12275;48.550;12.132;2023-09-19T17:36:54;19.80;99.90
24097;DHT22;12275;48.550;12.132;2023-09-19T17:39:20;19.80;99.90
24097;DHT22;12275;48.550;12.132;2023-09-19T17:41:45;19.80;99.90
24097;DHT22;12275;48.550;12.132;2023-09-19T17:44:11;19.70;99.90
24097;DHT22;12275;48.550;12.132;2023-09-19T17:46:37;19.70;99.90
24097;DHT22;12275;48.550;12.132;2023-09-19T17:49:04;19.70;99.90
24097;DHT22;12275;48.550;12.132;2023-09-19T17:51:29;19.70;99.90
24097;DHT22;12275;48.550;12.132;2023-09-19T17:53:55;19.70;99.90
24097;DHT22;12275;48.550;12.132;2023-09-19T17:56:29;19.60;99.90
24097;DHT22;12275;48.550;12.132;2023-09-19T17:58:54;19.60;99.90
24097;DHT22;12275;48.550;12.132;2023-09-19T18:01:21;19.60;99.90
24097;DHT22;12275;48.550;12.132;2023-09-19T18:03:54;19.50;99.90
24097;DHT22;12275;48.550;12.132;2023-09-19T18:06:23;19.50;99.90
24097;DHT22;12275;48.550;12.132;2023-09-19T18:08:48;19.50;99.90
24097;DHT22;12275;48.550;12.132;2023-09-19T18:11:15;19.50;99.90
24097;DHT22;12275;48.550;12.132;2023-09-19T18:13:47;19.40;99.90
24097;DHT22;12275;48.550;12.132;2023-09-19T18:16:14;19.40;99.90
24097;DHT22;12275;48.550;12.132;2023-09-19T18:18:42;19.20;99.90
24097;DHT22;12275;48.550;12.132;2023-09-19T18:21:07;19.10;99.90
24097;DHT22;12275;48.550;12.132;2023-09-19T18:23:33;19.20;99.90
24097;DHT22;12275;48.550;12.132;2023-09-19T18:26:00;19.20;99.90
24097;DHT22;12275;48.550;12.132;2023-09-19T18:28:26;19.20;99.90
24097;DHT22;12275;48.550;12.132;2023-09-19T18:30:51;19.20;99.90
24097;DHT22;12275;48.550;12.132;2023-09-19T18:33:17;19.20;99.90
24097;DHT22;12275;48.550;12.132;2023-09-19T18:35:42;19.20;99.90
24097;DHT22;12275;48.550;12.132;2023-09-19T18:38:08;19.20;99.90
24097;DHT22;12275;48.550;12.132;2023-09-19T18:40:34;19.10;99.90
24097;DHT22;12275;48.550;12.132;2023-09-19T18:43:02;18.90;99.90
24097;DHT22;12275;48.550;12.132;2023-09-19T18:45:28;18.70;99.90
24097;DHT22;12275;48.550;12.132;2023-09-19T18:47:54;18.70;99.90
24097;DHT22;12275;48.550;12.132;2023-09-19T18:50:19;18.70;99.90
24097;DHT22;12275;48.550;12.132;2023-09-19T18:52:45;18.80;99.90
24097;DHT22;12275;48.550;12.132;2023-09-19T18:55:10;18.70;99.90
24097;DHT22;12275;48.550;12.132;2023-09-19T18:57:40;18.80;99.90
24097;DHT22;12275;48.550;12.132;2023-09-19T19:00:05;18.80;99.90
24097;DHT22;12275;48.550;12.132;2023-09-19T19:02:32;18.80;99.90
24097;DHT22;12275;48.550;12.132;2023-09-19T19:04:57;18.80;99.90
24097;DHT22;12275;48.550;12.132;2023-09-19T19:07:23;18.70;99.90
24097;DHT22;12275;48.550;12.132;2023-09-19T19:09:49;18.70;99.90
24097;DHT22;12275;48.550;12.132;2023-09-19T19:12:14;18.70;99.90
24097;DHT22;12275;48.550;12.132;2023-09-19T19:14:40;18.60;99.90
24097;DHT22;12275;48.550;12.132;2023-09-19T19:17:09;18.70;99.90
24097;DHT22;12275;48.550;12.132;2023-09-19T19:19:36;18.70;99.90
24097;DHT22;12275;48.550;12.132;2023-09-19T19:22:02;18.50;99.90
24097;DHT22;12275;48.550;12.132;2023-09-19T19:24:27;18.30;99.90
24097;DHT22;12275;48.550;12.132;2023-09-19T19:26:54;18.20;99.90
24097;DHT22;12275;48.550;12.132;2023-09-19T19:29:20;18.10;99.90
24097;DHT22;12275;48.550;12.132;2023-09-19T19:31:46;18.30;99.90
24097;DHT22;12275;48.550;12.132;2023-09-19T19:34:11;18.30;99.90
24097;DHT22;12275;48.550;12.132;2023-09-19T19:36:37;18.40;99.90
24097;DHT22;12275;48.550;12.132;2023-09-19T19:39:03;18.30;99.90
24097;DHT22;12275;48.550;12.132;2023-09-19T19:41:30;18.30;99.90
24097;DHT22;12275;48.550;12.132;2023-09-19T19:47:41;18.30;99.90
24097;DHT22;12275;48.550;12.132;2023-09-19T19:50:30;18.40;99.90
24097;DHT22;12275;48.550;12.132;2023-09-19T19:53:41;18.40;99.90
24097;DHT22;12275;48.550;12.132;2023-09-19T19:55:58;18.40;99.90
24097;DHT22;12275;48.550;12.132;2023-09-19T19:58:24;18.30;99.90
24097;DHT22;12275;48.550;12.132;2023-09-19T20:00:54;18.30;99.90
24097;DHT22;12275;48.550;12.132;2023-09-19T20:03:32;18.20;99.90
24097;DHT22;12275;48.550;12.132;2023-09-19T20:06:01;18.20;99.90
24097;DHT22;12275;48.550;12.132;2023-09-19T20:08:28;18.30;99.90
24097;DHT22;12275;48.550;12.132;2023-09-19T20:11:14;18.00;99.90
24097;DHT22;12275;48.550;12.132;2023-09-19T20:13:39;18.10;99.90
24097;DHT22;12275;48.550;12.132;2023-09-19T20:16:05;18.10;99.90
24097;DHT22;12275;48.550;12.132;2023-09-19T20:18:33;18.10;99.90
24097;DHT22;12275;48.550;12.132;2023-09-19T20:21:04;18.20;99.90
24097;DHT22;12275;48.550;12.132;2023-09-19T20:27:48;18.10;99.90
24097;DHT22;12275;48.550;12.132;2023-09-19T20:30:20;18.10;99.90
24097;DHT22;12275;48.550;12.132;2023-09-19T20:32:49;18.10;99.90
24097;DHT22;12275;48.550;12.132;2023-09-19T20:35:19;18.00;99.90
24097;DHT22;12275;48.550;12.132;2023-09-19T20:37:45;18.00;99.90
24097;DHT22;12275;48.550;12.132;2023-09-19T20:40:15;18.00;99.90
24097;DHT22;12275;48.550;12.132;2023-09-19T20:42:53;18.00;99.90
24097;DHT22;12275;48.550;12.132;2023-09-19T20:45:24;18.00;99.90
24097;DHT22;12275;48.550;12.132;2023-09-19T20:47:50;18.00;99.90
24097;DHT22;12275;48.550;12.132;2023-09-19T20:50:17;18.00;99.90
24097;DHT22;12275;48.550;12.132;2023-09-19T20:52:43;17.90;99.90
24097;DHT22;12275;48.550;12.132;2023-09-19T20:55:24;17.70;99.90
24097;DHT22;12275;48.550;12.132;2023-09-19T20:57:51;17.60;99.90
24097;DHT22;12275;48.550;12.132;2023-09-19T21:00:21;17.30;99.90
24097;DHT22;12275;48.550;12.132;2023-09-19T21:02:53;17.20;99.90
24097;DHT22;12275;48.550;12.132;2023-09-19T21:05:19;17.10;99.90
24097;DHT22;12275;48.550;12.132;2023-09-19T21:07:47;17.10;99.90
24097;DHT22;12275;48.550;12.132;2023-09-19T21:10:12;17.10;99.90
24097;DHT22;12275;48.550;12.132;2023-09-19T21:12:40;17.20;99.90
24097;DHT22;12275;48.550;12.132;2023-09-19T21:15:06;17.30;99.90
24097;DHT22;12275;48.550;12.132;2023-09-19T21:17:32;17.40;99.90
24097;DHT22;12275;48.550;12.132;2023-09-19T21:19:57;17.40;99.90
24097;DHT22;12275;48.550;12.132;2023-09-19T21:22:23;17.30;99.90
24097;DHT22;12275;48.550;12.132;2023-09-19T21:24:51;17.40;99.90
24097;DHT22;12275;48.550;12.132;2023-09-19T21:27:19;17.40;99.90
24097;DHT22;12275;48.550;12.132;2023-09-19T21:29:45;17.40;99.90
24097;DHT22;12275;48.550;12.132;2023-09-19T21:32:10;17.30;99.90
24097;DHT22;12275;48.550;12.132;2023-09-19T21:34:36;17.10;99.90
24097;DHT22;12275;48.550;12.132;2023-09-19T21:37:02;16.80;99.90
24097;DHT22;12275;48.550;12.132;2023-09-19T21:39:28;16.90;99.90
24097;DHT22;12275;48.550;12.132;2023-09-19T21:41:54;17.00;99.90
24097;DHT22;12275;48.550;12.132;2023-09-19T21:44:19;17.00;99.90
24097;DHT22;12275;48.550;12.132;2023-09-19T21:46:45;17.10;99.90
24097;DHT22;12275;48.550;12.132;2023-09-19T21:49:10;17.00;99.90
24097;DHT22;12275;48.550;12.132;2023-09-19T21:51:36;17.00;99.90
24097;DHT22;12275;48.550;12.132;2023-09-19T21:54:01;17.00;99.90
24097;DHT22;12275;48.550;12.132;2023-09-19T21:56:28;17.00;99.90
24097;DHT22;12275;48.550;12.132;2023-09-19T21:58:54;17.00;99.90
24097;DHT22;12275;48.550;12.132;2023-09-19T22:01:20;16.90;99.90
24097;DHT22;12275;48.550;12.132;2023-09-19T22:03:54;16.90;99.90
24097;DHT22;12275;48.550;12.132;2023-09-19T22:06:20;16.90;99.90
24097;DHT22;12275;48.550;12.132;2023-09-19T22:08:49;16.70;99.90
24097;DHT22;12275;48.550;12.132;2023-09-19T22:11:15;16.50;99.90
24097;DHT22;12275;48.550;12.132;2023-09-19T22:13:41;16.30;99.90
24097;DHT22;12275;48.550;12.132;2023-09-19T22:16:08;16.10;99.90
24097;DHT22;12275;48.550;12.132;2023-09-19T22:18:34;16.00;99.90
24097;DHT22;12275;48.550;12.132;2023-09-19T22:20:59;16.20;99.90
24097;DHT22;12275;48.550;12.132;2023-09-19T22:23:32;16.30;99.90
24097;DHT22;12275;48.550;12.132;2023-09-19T22:26:01;16.50;99.90
24097;DHT22;12275;48.550;12.132;2023-09-19T22:28:37;16.50;99.90
24097;DHT22;12275;48.550;12.132;2023-09-19T22:31:15;16.50;99.90
24097;DHT22;12275;48.550;12.132;2023-09-19T22:33:41;16.50;99.90
24097;DHT22;12275;48.550;12.132;2023-09-19T22:36:07;16.40;99.90
24097;DHT22;12275;48.550;12.132;2023-09-19T22:38:33;16.40;99.90
24097;DHT22;12275;48.550;12.132;2023-09-19T22:41:02;16.50;99.90
24097;DHT22;12275;48.550;12.132;2023-09-19T22:43:31;16.50;99.90
24097;DHT22;12275;48.550;12.132;2023-09-19T22:46:01;16.40;99.90
24097;DHT22;12275;48.550;12.132;2023-09-19T22:48:33;16.50;99.90
24097;DHT22;12275;48.550;12.132;2023-09-19T22:50:59;16.50;99.90
24097;DHT22;12275;48.550;12.132;2023-09-19T22:53:31;16.50;99.90
24097;DHT22;12275;48.550;12.132;2023-09-19T22:56:02;16.40;99.90
24097;DHT22;12275;48.550;12.132;2023-09-19T22:58:42;16.40;99.90
24097;DHT22;12275;48.550;12.132;2023-09-19T23:01:12;16.20;99.90
24097;DHT22;12275;48.550;12.132;2023-09-19T23:03:46;16.10;99.90
24097;DHT22;12275;48.550;12.132;2023-09-19T23:06:18;16.00;99.90
24097;DHT22;12275;48.550;12.132;2023-09-19T23:08:50;16.10;99.90
24097;DHT22;12275;48.550;12.132;2023-09-19T23:11:17;16.10;99.90
24097;DHT22;12275;48.550;12.132;2023-09-19T23:13:50;15.80;99.90
24097;DHT22;12275;48.550;12.132;2023-09-19T23:16:17;15.70;99.90
24097;DHT22;12275;48.550;12.132;2023-09-19T23:18:56;15.90;99.90
24097;DHT22;12275;48.550;12.132;2023-09-19T23:21:25;15.90;99.90
24097;DHT22;12275;48.550;12.132;2023-09-19T23:23:55;16.00;99.90
24097;DHT22;12275;48.550;12.132;2023-09-19T23:26:21;16.00;99.90
24097;DHT22;12275;48.550;12.132;2023-09-19T23:28:48;16.00;99.90
24097;DHT22;12275;48.550;12.132;2023-09-19T23:31:15;16.00;99.90
24097;DHT22;12275;48.550;12.132;2023-09-19T23:33:41;16.00;99.90
24097;DHT22;12275;48.550;12.132;2023-09-19T23:36:06;16.00;99.90
24097;DHT22;12275;48.550;12.132;2023-09-19T23:38:34;16.00;99.90
24097;DHT22;12275;48.550;12.132;2023-09-19T23:41:00;16.00;99.90
24097;DHT22;12275;48.550;12.132;2023-09-19T23:43:25;15.80;99.90
24097;DHT22;12275;48.550;12.132;2023-09-19T23:45:58;15.90;99.90
24097;DHT22;12275;48.550;12.132;2023-09-19T23:48:23;15.90;99.90
24097;DHT22;12275;48.550;12.132;2023-09-19T23:50:49;15.90;99.90
24097;DHT22;12275;48.550;12.132;2023-09-19T23:53:15;15.90;99.90
24097;DHT22;12275;48.550;12.132;2023-09-19T23:55:41;15.90;99.90
24097;DHT22;12275;48.550;12.132;2023-09-19T23:58:07;15.90;99.90
